createdAt,value
2022-08-07T00:00:22.449Z,98145.03
2022-08-07T00:02:36.670Z,98146.70
2022-08-07T00:03:17.349Z,98144.02
2022-08-07T00:04:25.909Z,98145.63
2022-08-07T00:05:33.958Z,98147.66
2022-08-07T00:06:51.607Z,98145.61
2022-08-07T00:08:02.445Z,98146.98
2022-08-07T00:09:17.151Z,98144.27
2022-08-07T00:10:31.917Z,98145.87
2022-08-07T00:11:47.854Z,98144.53
2022-08-07T00:13:17.524Z,98142.43
2022-08-07T00:14:34.817Z,98144.38
2022-08-07T00:15:46.889Z,98143.48
2022-08-07T00:17:02.911Z,98139.37
2022-08-07T00:18:19.389Z,98143.23
2022-08-07T00:20:01.604Z,98144.55
2022-08-07T00:21:03.278Z,98146.89
2022-08-07T00:22:24.894Z,98147.70
2022-08-07T00:23:45.780Z,98148.05
2022-08-07T00:24:56.828Z,98147.98
2022-08-07T00:26:12.955Z,98142.91
2022-08-07T00:27:35.920Z,98149.45
2022-08-07T00:28:59.837Z,98150.34
2022-08-07T00:30:26.595Z,98151.20
2022-08-07T00:31:38.213Z,98147.91
2022-08-07T00:32:54.393Z,98149.66
2022-08-07T00:34:02.310Z,98151.44
2022-08-07T00:35:11.357Z,98147.32
2022-08-07T00:36:29.254Z,98145.91
2022-08-07T00:37:48.143Z,98146.23
2022-08-07T00:38:58.988Z,98148.71
2022-08-07T00:40:10.901Z,98151.14
2022-08-07T00:41:37.299Z,98151.41
2022-08-07T00:42:54.458Z,98154.22
2022-08-07T00:44:06.187Z,98150.70
2022-08-07T00:45:16.752Z,98152.55
2022-08-07T00:46:28.888Z,98153.92
2022-08-07T00:48:08.846Z,98156.30
2022-08-07T00:49:06.103Z,98151.62
2022-08-07T00:50:46.511Z,98152.33
2022-08-07T00:51:58.271Z,98155.31
2022-08-07T00:53:09.254Z,98155.30
2022-08-07T00:54:19.791Z,98152.17
2022-08-07T00:56:03.003Z,98153.23
2022-08-07T00:56:59.767Z,98153.38
2022-08-07T00:58:07.611Z,98156.09
2022-08-07T00:59:20.314Z,98156.78
2022-08-07T01:00:53.674Z,98157.88
2022-08-07T01:02:27.812Z,98161.20
2022-08-07T01:03:55.449Z,98159.59
2022-08-07T01:05:19.093Z,98159.66
2022-08-07T01:06:29.442Z,98162.00
2022-08-07T01:07:38.511Z,98165.01
2022-08-07T01:08:53.193Z,98161.16
2022-08-07T01:10:02.473Z,98162.36
2022-08-07T01:12:24.069Z,98164.36
2022-08-07T01:12:53.787Z,98161.77
2022-08-07T01:14:05.104Z,98166.05
2022-08-07T01:15:17.001Z,98166.48
2022-08-07T01:16:30.775Z,98165.17
2022-08-07T01:17:40.053Z,98163.13
2022-08-07T01:18:50.697Z,98167.73
2022-08-07T01:20:00.687Z,98169.97
2022-08-07T01:21:24.404Z,98169.84
2022-08-07T01:22:46.644Z,98171.13
2022-08-07T01:24:03.866Z,98171.39
2022-08-07T01:25:40.645Z,98171.21
2022-08-07T01:26:45.206Z,98177.23
2022-08-07T01:28:04.044Z,98178.92
2022-08-07T01:29:15.807Z,98178.17
2022-08-07T01:30:27.236Z,98179.36
2022-08-07T01:31:42.708Z,98177.61
2022-08-07T01:32:57.277Z,98183.08
2022-08-07T01:34:09.311Z,98180.29
2022-08-07T01:35:21.202Z,98177.84
2022-08-07T01:36:40.692Z,98177.96
2022-08-07T01:37:57.008Z,98176.05
2022-08-07T01:39:09.944Z,98172.29
2022-08-07T01:40:23.289Z,98176.83
2022-08-07T01:41:36.075Z,98175.65
2022-08-07T01:42:58.663Z,98174.86
2022-08-07T01:44:13.596Z,98175.40
2022-08-07T01:45:36.408Z,98175.73
2022-08-07T01:46:56.072Z,98177.30
2022-08-07T01:48:19.231Z,98177.77
2022-08-07T01:49:32.684Z,98184.05
2022-08-07T01:50:43.250Z,98187.56
2022-08-07T01:52:02.833Z,98188.73
2022-08-07T01:53:20.887Z,98189.71
2022-08-07T01:54:43.053Z,98188.26
2022-08-07T01:56:03.496Z,98189.23
2022-08-07T01:57:24.466Z,98197.89
2022-08-07T01:58:45.263Z,98198.71
2022-08-07T02:00:19.927Z,98200.27
2022-08-07T02:02:02.331Z,98203.84
2022-08-07T02:03:21.490Z,98205.66
2022-08-07T02:04:57.393Z,98208.14
2022-08-07T02:06:30.708Z,98210.22
2022-08-07T02:07:52.471Z,98211.42
2022-08-07T02:09:11.673Z,98209.88
2022-08-07T02:10:42.868Z,98217.41
2022-08-07T02:12:03.287Z,98218.02
2022-08-07T02:13:18.175Z,98227.25
2022-08-07T02:14:35.774Z,98225.77
2022-08-07T02:15:54.373Z,98229.31
2022-08-07T02:17:06.162Z,98233.60
2022-08-07T02:18:15.436Z,98236.42
2022-08-07T02:20:04.606Z,98237.64
2022-08-07T02:20:59.248Z,98241.71
2022-08-07T02:22:25.616Z,98244.73
2022-08-07T02:23:38.764Z,98244.65
2022-08-07T02:24:50.280Z,98245.00
2022-08-07T02:26:31.668Z,98249.63
2022-08-07T02:27:34.217Z,98253.42
2022-08-07T02:28:43.519Z,98251.27
2022-08-07T02:29:54.473Z,98254.41
2022-08-07T02:31:10.276Z,98257.02
2022-08-07T02:33:03.788Z,98259.70
2022-08-07T02:34:11.082Z,98257.39
2022-08-07T02:36:30.916Z,98255.27
2022-08-07T02:37:03.993Z,98260.61
2022-08-07T02:38:22.725Z,98264.34
2022-08-07T02:39:43.935Z,98262.02
2022-08-07T02:41:11.157Z,98264.05
2022-08-07T02:42:21.386Z,98266.27
2022-08-07T02:43:31.264Z,98268.92
2022-08-07T02:44:42.254Z,98271.63
2022-08-07T02:46:02.786Z,98275.44
2022-08-07T02:47:19.826Z,98276.46
2022-08-07T02:48:47.175Z,98285.16
2022-08-07T02:50:05.847Z,98290.84
2022-08-07T02:51:41.817Z,98291.32
2022-08-07T02:53:06.053Z,98293.45
2022-08-07T02:54:18.414Z,98296.69
2022-08-07T02:56:03.179Z,98293.70
2022-08-07T02:57:03.799Z,98297.38
2022-08-07T02:58:27.268Z,98301.61
2022-08-07T02:59:36.829Z,98304.13
2022-08-07T03:00:47.421Z,98308.16
2022-08-07T03:01:57.678Z,98308.67
2022-08-07T03:03:14.262Z,98309.73
2022-08-07T03:04:36.313Z,98311.67
2022-08-07T03:05:46.345Z,98309.55
2022-08-07T03:06:58.102Z,98311.98
2022-08-07T03:08:16.982Z,98308.29
2022-08-07T03:09:43.912Z,98308.74
2022-08-07T03:10:54.926Z,98312.83
2022-08-07T03:12:21.700Z,98314.36
2022-08-07T03:13:38.782Z,98313.00
2022-08-07T03:14:53.066Z,98314.77
2022-08-07T03:16:07.106Z,98318.68
2022-08-07T03:17:16.817Z,98321.38
2022-08-07T03:18:34.818Z,98320.64
2022-08-07T03:19:55.201Z,98322.04
2022-08-07T03:21:08.837Z,98327.98
2022-08-07T03:22:24.286Z,98329.23
2022-08-07T03:24:20.116Z,98328.25
2022-08-07T03:25:12.040Z,98331.38
2022-08-07T03:26:26.894Z,98329.09
2022-08-07T03:28:09.755Z,98330.34
2022-08-07T03:29:11.045Z,98336.79
2022-08-07T03:30:20.149Z,98336.92
2022-08-07T03:31:42.595Z,98340.58
2022-08-07T03:32:58.421Z,98339.36
2022-08-07T03:34:18.842Z,98339.55
2022-08-07T03:35:43.601Z,98339.55
2022-08-07T03:37:12.259Z,98336.94
2022-08-07T03:38:29.409Z,98339.16
2022-08-07T03:39:58.845Z,98337.80
2022-08-07T03:41:10.459Z,98337.09
2022-08-07T03:42:20.130Z,98338.09
2022-08-07T03:43:32.256Z,98336.33
2022-08-07T03:44:41.728Z,98334.55
2022-08-07T03:45:51.601Z,98341.02
2022-08-07T03:47:11.201Z,98339.88
2022-08-07T03:48:24.459Z,98338.02
2022-08-07T03:49:34.736Z,98339.14
2022-08-07T03:50:56.188Z,98340.48
2022-08-07T03:52:26.851Z,98343.48
2022-08-07T03:54:05.597Z,98338.06
2022-08-07T03:55:09.484Z,98340.52
2022-08-07T03:56:32.750Z,98343.17
2022-08-07T03:58:33.261Z,98344.78
2022-08-07T03:59:17.186Z,98345.52
2022-08-07T04:00:33.703Z,98345.02
2022-08-07T04:01:48.280Z,98346.51
2022-08-07T04:03:05.079Z,98346.45
2022-08-07T04:04:20.791Z,98346.81
2022-08-07T04:05:39.608Z,98347.86
2022-08-07T04:07:01.954Z,98353.77
2022-08-07T04:08:29.979Z,98352.45
2022-08-07T04:09:45.218Z,98359.20
2022-08-07T04:12:26.964Z,98357.96
2022-08-07T04:12:39.960Z,98358.93
2022-08-07T04:14:10.477Z,98362.16
2022-08-07T04:15:19.927Z,98361.24
2022-08-07T04:16:36.193Z,98362.84
2022-08-07T04:18:30.797Z,98365.47
2022-08-07T04:19:18.589Z,98368.70
2022-08-07T04:20:35.347Z,98371.29
2022-08-07T04:21:58.922Z,98374.21
2022-08-07T04:23:19.229Z,98376.66
2022-08-07T04:24:33.925Z,98376.07
2022-08-07T04:25:51.097Z,98377.18
2022-08-07T04:27:04.477Z,98377.27
2022-08-07T04:28:14.170Z,98377.20
2022-08-07T04:29:27.783Z,98376.09
2022-08-07T04:30:58.719Z,98372.86
2022-08-07T04:32:14.364Z,98372.02
2022-08-07T04:33:27.331Z,98373.30
2022-08-07T04:34:39.415Z,98373.88
2022-08-07T04:35:51.227Z,98377.62
2022-08-07T04:37:07.977Z,98379.19
2022-08-07T04:38:25.735Z,98383.36
2022-08-07T04:39:35.859Z,98384.95
2022-08-07T04:40:52.143Z,98388.33
2022-08-07T04:42:08.067Z,98384.49
2022-08-07T04:43:22.084Z,98382.23
2022-08-07T04:44:54.806Z,98381.27
2022-08-07T04:46:34.886Z,98381.13
2022-08-07T04:48:10.850Z,98382.15
2022-08-07T04:49:41.340Z,98387.66
2022-08-07T04:51:09.014Z,98387.80
2022-08-07T04:52:53.993Z,98390.34
2022-08-07T04:54:38.932Z,98394.06
2022-08-07T04:58:12.970Z,98395.33
2022-08-07T04:58:33.727Z,98394.90
2022-08-07T05:00:11.270Z,98392.02
2022-08-07T05:02:00.591Z,98396.02
2022-08-07T05:04:08.045Z,98395.68
2022-08-07T05:05:52.686Z,98397.09
2022-08-07T05:07:48.384Z,98396.57
2022-08-07T05:09:43.170Z,98397.48
2022-08-07T05:11:11.649Z,98398.59
2022-08-07T05:14:44.772Z,98398.15
2022-08-07T05:14:52.325Z,98395.11
2022-08-07T05:16:12.594Z,98392.39
2022-08-07T05:17:50.861Z,98391.92
2022-08-07T05:19:06.487Z,98390.25
2022-08-07T05:20:17.569Z,98390.38
2022-08-07T05:22:00.047Z,98388.80
2022-08-07T05:23:03.230Z,98391.97
2022-08-07T05:24:19.722Z,98387.29
2022-08-07T05:26:08.802Z,98387.52
2022-08-07T05:27:03.147Z,98388.74
2022-08-07T05:28:20.503Z,98385.95
2022-08-07T05:29:51.241Z,98386.48
2022-08-07T05:31:01.058Z,98390.28
2022-08-07T05:32:12.951Z,98387.98
2022-08-07T05:33:22.015Z,98386.14
2022-08-07T05:34:30.652Z,98391.74
2022-08-07T05:35:42.438Z,98389.38
2022-08-07T05:37:02.362Z,98389.70
2022-08-07T05:39:00.018Z,98391.26
2022-08-07T05:40:14.360Z,98393.52
2022-08-07T05:41:23.430Z,98392.42
2022-08-07T05:42:34.366Z,98395.29
2022-08-07T05:44:06.761Z,98394.85
2022-08-07T05:45:46.956Z,98390.95
2022-08-07T05:46:52.042Z,98391.02
2022-08-07T05:48:06.501Z,98389.27
2022-08-07T05:49:20.912Z,98389.91
2022-08-07T05:50:39.367Z,98387.76
2022-08-07T05:51:53.213Z,98391.27
2022-08-07T05:53:05.344Z,98388.42
2022-08-07T05:54:53.499Z,98387.50
2022-08-07T05:56:06.103Z,98388.58
2022-08-07T05:57:20.027Z,98388.50
2022-08-07T05:58:36.533Z,98392.55
2022-08-07T05:59:57.801Z,98390.23
2022-08-07T06:01:22.240Z,98395.55
2022-08-07T06:02:32.756Z,98397.04
2022-08-07T06:03:56.480Z,98394.76
2022-08-07T06:05:15.778Z,98396.64
2022-08-07T06:06:32.574Z,98394.64
2022-08-07T06:08:12.339Z,98395.45
2022-08-07T06:09:14.523Z,98396.73
2022-08-07T06:10:26.394Z,98400.59
2022-08-07T06:11:35.920Z,98396.80
2022-08-07T06:12:45.655Z,98401.66
2022-08-07T06:14:13.594Z,98397.27
2022-08-07T06:15:42.014Z,98402.27
2022-08-07T06:16:55.796Z,98399.89
2022-08-07T06:18:15.845Z,98401.67
2022-08-07T06:19:51.858Z,98401.17
2022-08-07T06:22:14.587Z,98401.34
2022-08-07T06:22:24.075Z,98398.55
2022-08-07T06:24:38.124Z,98398.77
2022-08-07T06:25:11.631Z,98401.86
2022-08-07T06:26:27.442Z,98399.77
2022-08-07T06:27:44.454Z,98401.61
2022-08-07T06:29:06.801Z,98400.27
2022-08-07T06:30:31.837Z,98402.85
2022-08-07T06:31:50.287Z,98403.65
2022-08-07T06:33:00.358Z,98404.42
2022-08-07T06:34:10.237Z,98404.81
2022-08-07T06:35:21.790Z,98406.02
2022-08-07T06:36:34.828Z,98403.61
2022-08-07T06:37:47.913Z,98403.25
2022-08-07T06:40:15.662Z,98405.76
2022-08-07T06:40:49.321Z,98404.41
2022-08-07T06:42:34.791Z,98404.02
2022-08-07T06:44:01.799Z,98406.23
2022-08-07T06:45:18.139Z,98402.54
2022-08-07T06:46:35.515Z,98399.95
2022-08-07T06:47:48.372Z,98402.61
2022-08-07T06:49:10.500Z,98405.30
2022-08-07T06:50:19.222Z,98404.92
2022-08-07T06:51:33.522Z,98406.61
2022-08-07T06:52:47.170Z,98407.26
2022-08-07T06:55:29.353Z,98408.49
2022-08-07T06:55:53.832Z,98410.16
2022-08-07T06:57:07.305Z,98408.90
2022-08-07T06:58:17.057Z,98407.63
2022-08-07T07:00:13.863Z,98409.27
2022-08-07T07:01:08.979Z,98408.39
2022-08-07T07:02:48.688Z,98410.50
2022-08-07T07:04:27.718Z,98412.66
2022-08-07T07:06:03.685Z,98410.48
2022-08-07T07:07:01.113Z,98410.16
2022-08-07T07:08:18.482Z,98410.16
2022-08-07T07:09:36.228Z,98411.83
2022-08-07T07:10:54.692Z,98412.75
2022-08-07T07:12:31.070Z,98413.42
2022-08-07T07:13:57.808Z,98411.99
2022-08-07T07:15:24.089Z,98412.84
2022-08-07T07:16:45.405Z,98412.02
2022-08-07T07:18:12.224Z,98411.98
2022-08-07T07:19:56.973Z,98411.88
2022-08-07T07:20:55.687Z,98413.13
2022-08-07T07:22:05.289Z,98410.04
2022-08-07T07:24:06.161Z,98416.54
2022-08-07T07:25:02.623Z,98419.55
2022-08-07T07:26:34.426Z,98425.54
2022-08-07T07:28:42.518Z,98431.42
2022-08-07T07:30:09.156Z,98433.16
2022-08-07T07:31:30.476Z,98434.63
2022-08-07T07:32:51.528Z,98435.30
2022-08-07T07:34:06.597Z,98434.60
2022-08-07T07:35:16.030Z,98433.24
2022-08-07T07:36:24.336Z,98434.17
2022-08-07T07:37:47.246Z,98433.36
2022-08-07T07:39:02.814Z,98428.55
2022-08-07T07:40:16.970Z,98432.44
2022-08-07T07:41:50.314Z,98430.90
2022-08-07T07:42:55.461Z,98430.06
2022-08-07T07:44:17.530Z,98428.41
2022-08-07T07:46:39.741Z,98424.90
2022-08-07T07:47:11.974Z,98420.88
2022-08-07T07:48:35.769Z,98419.55
2022-08-07T07:50:35.101Z,98422.30
2022-08-07T07:51:15.431Z,98422.09
2022-08-07T07:52:24.476Z,98425.15
2022-08-07T07:53:34.962Z,98426.53
2022-08-07T07:54:50.549Z,98430.27
2022-08-07T07:56:03.632Z,98426.10
2022-08-07T07:57:13.007Z,98425.90
2022-08-07T07:58:20.646Z,98421.71
2022-08-07T07:59:52.197Z,98421.38
2022-08-07T08:01:03.070Z,98422.60
2022-08-07T08:02:35.841Z,98423.66
2022-08-07T08:04:10.612Z,98425.23
2022-08-07T08:05:15.041Z,98420.59
2022-08-07T08:06:25.367Z,98425.20
2022-08-07T08:07:35.598Z,98427.16
2022-08-07T08:08:52.024Z,98422.91
2022-08-07T08:10:05.525Z,98424.71
2022-08-07T08:11:18.041Z,98429.17
2022-08-07T08:12:58.983Z,98426.66
2022-08-07T08:14:12.303Z,98425.70
2022-08-07T08:16:53.227Z,98428.59
2022-08-07T08:18:17.217Z,98428.13
2022-08-07T08:18:36.321Z,98429.77
2022-08-07T08:20:17.117Z,98427.00
2022-08-07T08:21:00.764Z,98430.05
2022-08-07T08:22:32.766Z,98427.14
2022-08-07T08:23:59.874Z,98430.00
2022-08-07T08:25:42.243Z,98430.48
2022-08-07T08:27:11.633Z,98427.65
2022-08-07T08:28:37.867Z,98426.04
2022-08-07T08:29:56.274Z,98426.08
2022-08-07T08:31:05.498Z,98427.40
2022-08-07T08:32:18.554Z,98424.21
2022-08-07T08:33:33.804Z,98424.92
2022-08-07T08:34:44.942Z,98426.46
2022-08-07T08:35:53.879Z,98427.77
2022-08-07T08:37:02.662Z,98428.17
2022-08-07T08:38:11.861Z,98430.92
2022-08-07T08:39:23.803Z,98428.40
2022-08-07T08:40:40.580Z,98429.93
2022-08-07T08:41:57.521Z,98429.83
2022-08-07T08:43:20.087Z,98431.25
2022-08-07T08:44:36.248Z,98428.09
2022-08-07T08:46:15.669Z,98428.77
2022-08-07T08:47:52.557Z,98428.09
2022-08-07T08:49:33.376Z,98424.23
2022-08-07T08:50:49.250Z,98423.14
2022-08-07T08:52:13.923Z,98422.98
2022-08-07T08:53:45.848Z,98428.08
2022-08-07T08:55:53.151Z,98429.46
2022-08-07T08:56:55.240Z,98426.48
2022-08-07T08:58:28.526Z,98423.73
2022-08-07T08:59:52.596Z,98426.41
2022-08-07T09:01:21.586Z,98426.16
2022-08-07T09:02:49.415Z,98424.99
2022-08-07T09:04:32.787Z,98424.06
2022-08-07T09:05:56.033Z,98424.78
2022-08-07T09:07:11.783Z,98424.77
2022-08-07T09:08:43.972Z,98422.88
2022-08-07T09:10:31.596Z,98419.97
2022-08-07T09:11:54.188Z,98417.89
2022-08-07T09:13:19.785Z,98419.60
2022-08-07T09:16:23.467Z,98423.83
2022-08-07T09:17:06.963Z,98427.73
2022-08-07T09:18:58.445Z,98426.38
2022-08-07T09:20:57.877Z,98424.61
2022-08-07T09:24:53.813Z,98425.13
2022-08-07T09:24:59.687Z,98425.72
2022-08-07T09:26:29.601Z,98423.14
2022-08-07T09:27:59.678Z,98420.85
2022-08-07T09:30:03.369Z,98418.19
2022-08-07T09:31:01.319Z,98415.63
2022-08-07T09:32:29.001Z,98418.73
2022-08-07T09:34:04.043Z,98417.90
2022-08-07T09:36:03.839Z,98418.52
2022-08-07T09:37:47.876Z,98415.27
2022-08-07T09:39:54.016Z,98409.64
2022-08-07T09:41:43.378Z,98409.85
2022-08-07T09:44:03.630Z,98412.79
2022-08-07T09:47:23.433Z,98419.71
2022-08-07T09:47:50.719Z,98420.29
2022-08-07T09:50:01.161Z,98420.23
2022-08-07T09:51:02.446Z,98417.95
2022-08-07T09:52:37.156Z,98418.84
2022-08-07T09:53:48.846Z,98417.02
2022-08-07T09:55:29.252Z,98416.73
2022-08-07T09:57:01.468Z,98418.44
2022-08-07T09:58:43.647Z,98418.80
2022-08-07T10:00:15.071Z,98420.63
2022-08-07T10:01:51.545Z,98417.77
2022-08-07T10:04:06.152Z,98416.84
2022-08-07T10:06:00.361Z,98415.61
2022-08-07T10:07:39.710Z,98412.25
2022-08-07T10:09:34.165Z,98407.60
2022-08-07T10:12:00.135Z,98405.78
2022-08-07T10:13:29.718Z,98405.45
2022-08-07T10:15:26.614Z,98405.36
2022-08-07T10:17:01.519Z,98405.73
2022-08-07T10:18:26.647Z,98404.60
2022-08-07T10:20:12.968Z,98399.58
2022-08-07T10:22:12.136Z,98397.65
2022-08-07T10:24:06.093Z,98396.89
2022-08-07T10:25:20.954Z,98396.52
2022-08-07T10:27:12.415Z,98394.94
2022-08-07T10:28:27.925Z,98393.30
2022-08-07T10:30:12.134Z,98392.52
2022-08-07T10:31:38.742Z,98390.77
2022-08-07T10:33:14.990Z,98387.79
2022-08-07T10:34:27.230Z,98385.69
2022-08-07T10:36:18.978Z,98384.03
2022-08-07T10:38:36.247Z,98384.38
2022-08-07T10:40:30.280Z,98382.04
2022-08-07T10:41:53.053Z,98382.05
2022-08-07T10:43:34.625Z,98383.24
2022-08-07T10:45:19.606Z,98384.58
2022-08-07T10:47:27.159Z,98386.13
2022-08-07T10:49:16.963Z,98386.92
2022-08-07T10:51:16.777Z,98388.09
2022-08-07T10:52:53.108Z,98391.73
2022-08-07T10:54:13.773Z,98390.72
2022-08-07T10:55:38.244Z,98387.81
2022-08-07T10:56:52.286Z,98388.55
2022-08-07T10:58:05.664Z,98387.86
2022-08-07T10:59:45.337Z,98386.45
2022-08-07T11:01:00.796Z,98385.33
2022-08-07T11:02:34.142Z,98382.19
2022-08-07T11:04:01.361Z,98381.29
2022-08-07T11:05:58.239Z,98378.91
2022-08-07T11:07:59.085Z,98376.35
2022-08-07T11:09:11.513Z,98374.01
2022-08-07T11:10:37.441Z,98373.70
2022-08-07T11:11:59.324Z,98371.98
2022-08-07T11:14:44.811Z,98371.41
2022-08-07T11:15:17.263Z,98373.92
2022-08-07T11:16:38.887Z,98371.48
2022-08-07T11:18:22.658Z,98371.02
2022-08-07T11:20:00.204Z,98367.33
2022-08-07T11:21:17.501Z,98362.41
2022-08-07T11:23:07.174Z,98364.30
2022-08-07T11:24:56.219Z,98362.80
2022-08-07T11:26:50.959Z,98359.70
2022-08-07T11:28:09.217Z,98360.09
2022-08-07T11:29:43.539Z,98356.59
2022-08-07T11:30:59.548Z,98353.11
2022-08-07T11:33:02.278Z,98355.41
2022-08-07T11:34:55.790Z,98355.62
2022-08-07T11:36:36.157Z,98355.54
2022-08-07T11:37:58.030Z,98359.14
2022-08-07T11:39:59.945Z,98354.60
2022-08-07T11:41:29.695Z,98356.70
2022-08-07T11:43:41.493Z,98358.19
2022-08-07T11:44:58.171Z,98356.02
2022-08-07T11:46:11.716Z,98353.95
2022-08-07T11:47:38.871Z,98352.95
2022-08-07T11:49:51.022Z,98356.00
2022-08-07T11:51:41.748Z,98354.77
2022-08-07T11:53:23.928Z,98351.27
2022-08-07T11:55:13.042Z,98355.38
2022-08-07T11:56:53.078Z,98356.83
2022-08-07T11:58:52.376Z,98358.96
2022-08-07T12:01:04.415Z,98356.24
2022-08-07T12:02:38.357Z,98362.67
2022-08-07T12:04:41.094Z,98364.77
2022-08-07T12:06:38.901Z,98360.97
2022-08-07T12:08:03.600Z,98363.57
2022-08-07T12:09:31.753Z,98363.20
2022-08-07T12:11:08.135Z,98362.80
2022-08-07T12:12:28.828Z,98366.64
2022-08-07T12:13:55.784Z,98367.34
2022-08-07T12:15:35.904Z,98365.73
2022-08-07T12:16:56.471Z,98367.33
2022-08-07T12:18:50.715Z,98373.46
2022-08-07T12:20:30.381Z,98377.67
2022-08-07T12:22:37.338Z,98381.35
2022-08-07T12:24:05.369Z,98384.88
2022-08-07T12:26:22.096Z,98386.53
2022-08-07T12:27:27.964Z,98388.62
2022-08-07T12:29:15.288Z,98388.61
2022-08-07T12:30:23.644Z,98396.27
2022-08-07T12:31:52.861Z,98396.80
2022-08-07T12:33:30.851Z,98396.91
2022-08-07T12:34:56.336Z,98396.28
2022-08-07T12:36:05.835Z,98397.25
2022-08-07T12:37:23.528Z,98398.39
2022-08-07T12:38:43.351Z,98400.04
2022-08-07T12:39:55.644Z,98402.30
2022-08-07T12:41:06.364Z,98405.38
2022-08-07T12:42:27.306Z,98408.05
2022-08-07T12:44:02.349Z,98409.52
2022-08-07T12:45:11.593Z,98412.55
2022-08-07T12:47:27.072Z,98417.02
2022-08-07T12:49:40.244Z,98419.36
2022-08-07T12:51:17.563Z,98417.09
2022-08-07T12:52:36.506Z,98414.73
2022-08-07T12:54:03.155Z,98416.15
2022-08-07T12:55:41.092Z,98417.83
2022-08-07T12:56:55.025Z,98421.43
2022-08-07T12:58:02.788Z,98420.89
2022-08-07T12:59:20.836Z,98421.09
2022-08-07T13:01:11.137Z,98423.92
2022-08-07T13:02:38.363Z,98426.02
2022-08-07T13:04:09.790Z,98428.04
2022-08-07T13:06:04.674Z,98428.40
2022-08-07T13:08:13.700Z,98430.11
2022-08-07T13:09:12.681Z,98430.86
2022-08-07T13:11:02.400Z,98429.27
2022-08-07T13:12:17.134Z,98434.28
2022-08-07T13:13:48.591Z,98437.55
2022-08-07T13:15:31.864Z,98439.76
2022-08-07T13:17:07.946Z,98440.79
2022-08-07T13:18:53.895Z,98446.73
2022-08-07T13:20:27.755Z,98450.05
2022-08-07T13:21:57.638Z,98449.02
2022-08-07T13:24:01.680Z,98447.59
2022-08-07T13:25:00.250Z,98449.45
2022-08-07T13:26:37.053Z,98447.79
2022-08-07T13:28:29.020Z,98451.64
2022-08-07T13:30:19.499Z,98451.14
2022-08-07T13:32:23.659Z,98454.56
2022-08-07T13:34:34.290Z,98454.48
2022-08-07T13:36:01.337Z,98455.51
2022-08-07T13:37:01.315Z,98458.27
2022-08-07T13:38:34.773Z,98459.73
2022-08-07T13:40:34.143Z,98457.69
2022-08-07T13:41:47.497Z,98457.73
2022-08-07T13:42:59.060Z,98458.59
2022-08-07T13:44:10.706Z,98459.20
2022-08-07T13:46:20.890Z,98458.27
2022-08-07T13:46:51.162Z,98456.23
2022-08-07T13:48:08.515Z,98455.40
2022-08-07T13:50:33.121Z,98458.59
2022-08-07T13:51:00.269Z,98454.58
2022-08-07T13:52:26.403Z,98453.81
2022-08-07T13:54:00.130Z,98453.46
2022-08-07T13:55:25.546Z,98457.54
2022-08-07T13:56:41.126Z,98458.10
2022-08-07T13:58:31.892Z,98461.40
2022-08-07T13:59:40.058Z,98464.11
2022-08-07T14:00:54.285Z,98465.31
2022-08-07T14:02:14.896Z,98461.61
2022-08-07T14:03:29.096Z,98459.25
2022-08-07T14:04:56.599Z,98462.25
2022-08-07T14:06:04.514Z,98461.60
2022-08-07T14:07:15.253Z,98463.92
2022-08-07T14:08:27.099Z,98464.39
2022-08-07T14:10:17.420Z,98461.58
2022-08-07T14:11:15.101Z,98460.99
2022-08-07T14:12:55.509Z,98459.49
2022-08-07T14:14:08.622Z,98461.70
2022-08-07T14:15:50.544Z,98462.97
2022-08-07T14:17:13.017Z,98463.71
2022-08-07T14:18:57.201Z,98466.30
2022-08-07T14:20:43.674Z,98466.20
2022-08-07T14:22:01.876Z,98466.02
2022-08-07T14:24:01.446Z,98464.23
2022-08-07T14:25:13.968Z,98459.40
2022-08-07T14:26:29.862Z,98456.08
2022-08-07T14:28:12.846Z,98452.30
2022-08-07T14:30:05.394Z,98448.34
2022-08-07T14:31:14.070Z,98441.38
2022-08-07T14:32:25.597Z,98443.65
2022-08-07T14:35:07.491Z,98453.83
2022-08-07T14:36:17.392Z,98459.90
2022-08-07T14:38:55.722Z,98491.73
2022-08-07T14:40:18.149Z,98503.77
2022-08-07T14:42:18.841Z,98511.16
2022-08-07T14:43:57.646Z,98510.38
2022-08-07T14:44:37.100Z,98510.30
2022-08-07T14:45:51.477Z,98510.53
2022-08-07T14:47:14.137Z,98513.70
2022-08-07T14:48:48.467Z,98511.44
2022-08-07T14:49:59.174Z,98510.15
2022-08-07T14:51:17.154Z,98508.61
2022-08-07T14:52:28.010Z,98509.45
2022-08-07T14:54:05.643Z,98511.29
2022-08-07T14:55:17.426Z,98514.75
2022-08-07T14:56:30.427Z,98516.39
2022-08-07T14:57:58.014Z,98518.38
2022-08-07T15:00:37.826Z,98514.75
2022-08-07T15:01:51.488Z,98509.23
2022-08-07T15:03:18.805Z,98506.20
2022-08-07T15:04:28.824Z,98503.04
2022-08-07T15:05:36.998Z,98503.63
2022-08-07T15:07:17.679Z,98504.73
2022-08-07T15:08:50.215Z,98499.63
2022-08-07T15:10:08.198Z,98499.83
2022-08-07T15:11:53.037Z,98504.46
2022-08-07T15:13:19.243Z,98503.99
2022-08-07T15:16:02.592Z,98507.81
2022-08-07T15:17:17.919Z,98504.42
2022-08-07T15:18:46.755Z,98502.14
2022-08-07T15:20:33.656Z,98502.72
2022-08-07T15:23:20.435Z,98507.98
2022-08-07T15:25:15.513Z,98510.59
2022-08-07T15:26:21.275Z,98508.23
2022-08-07T15:27:32.120Z,98514.61
2022-08-07T15:28:45.059Z,98513.94
2022-08-07T15:30:16.847Z,98514.95
2022-08-07T15:34:26.223Z,98518.00
2022-08-07T15:36:01.652Z,98517.61
2022-08-07T15:37:07.471Z,98515.89
2022-08-07T15:38:30.376Z,98513.91
2022-08-07T15:39:58.306Z,98512.11
2022-08-07T15:41:23.374Z,98510.58
2022-08-07T15:42:51.751Z,98514.09
2022-08-07T15:44:13.267Z,98509.42
2022-08-07T15:47:09.100Z,98503.30
2022-08-07T15:48:36.118Z,98500.44
2022-08-07T15:50:07.563Z,98501.04
2022-08-07T15:51:18.204Z,98501.29
2022-08-07T15:52:30.306Z,98500.67
2022-08-07T15:53:54.429Z,98500.09
2022-08-07T15:55:08.932Z,98498.27
2022-08-07T15:56:24.363Z,98495.69
2022-08-07T15:57:48.088Z,98495.89
2022-08-07T15:59:03.005Z,98499.29
2022-08-07T16:00:31.789Z,98500.90
2022-08-07T16:02:01.693Z,98499.65
2022-08-07T16:03:21.407Z,98496.61
2022-08-07T16:04:46.876Z,98491.89
2022-08-07T16:05:56.648Z,98489.58
2022-08-07T16:08:32.106Z,98490.95
2022-08-07T16:08:42.973Z,98488.65
2022-08-07T16:10:20.386Z,98492.52
2022-08-07T16:11:40.190Z,98497.04
2022-08-07T16:13:57.894Z,98493.27
2022-08-07T16:15:55.641Z,98488.73
2022-08-07T16:18:02.062Z,98486.14
2022-08-07T16:19:42.801Z,98486.98
2022-08-07T16:22:03.557Z,98479.92
2022-08-07T16:23:54.522Z,98475.42
2022-08-07T16:25:54.491Z,98470.41
2022-08-07T16:27:40.783Z,98468.77
2022-08-07T16:30:10.183Z,98469.71
2022-08-07T16:31:58.516Z,98464.44
2022-08-07T16:34:01.625Z,98460.80
2022-08-07T16:34:52.459Z,98460.48
2022-08-07T16:37:02.057Z,98458.71
2022-08-07T16:39:00.664Z,98454.20
2022-08-07T16:40:33.690Z,98455.27
2022-08-07T16:42:21.494Z,98452.83
2022-08-07T16:44:05.912Z,98454.65
2022-08-07T16:46:40.365Z,98450.32
2022-08-07T16:47:56.997Z,98451.27
2022-08-07T16:50:26.584Z,98449.16
2022-08-07T16:51:21.575Z,98447.34
2022-08-07T16:52:55.737Z,98448.10
2022-08-07T16:54:16.674Z,98447.52
2022-08-07T16:55:43.740Z,98442.83
2022-08-07T16:58:02.702Z,98442.72
2022-08-07T16:59:45.787Z,98444.88
2022-08-07T17:01:03.099Z,98443.11
2022-08-07T17:02:52.881Z,98445.31
2022-08-07T17:04:25.159Z,98442.09
2022-08-07T17:06:19.004Z,98440.57